createdAt,value
2022-10-17T00:01:24.655Z,15.10
2022-10-17T00:03:59.582Z,15.10
2022-10-17T00:06:27.986Z,15.10
2022-10-17T00:09:02.549Z,15.10
2022-10-17T00:11:31.001Z,15.10
2022-10-17T00:14:06.755Z,15.10
2022-10-17T00:16:38.330Z,15.10
2022-10-17T00:19:14.590Z,15.10
2022-10-17T00:21:43.078Z,15.20
2022-10-17T00:24:18.906Z,15.10
2022-10-17T00:26:47.331Z,15.20
2022-10-17T00:29:22.555Z,15.20
2022-10-17T00:31:56.515Z,15.20
2022-10-17T00:34:31.633Z,15.20
2022-10-17T00:37:00.795Z,15.20
2022-10-17T00:39:35.600Z,15.20
2022-10-17T00:42:11.030Z,15.20
2022-10-17T00:45:26.758Z,15.20
2022-10-17T00:48:07.588Z,15.20
2022-10-17T00:50:37.648Z,15.20
2022-10-17T00:53:14.601Z,15.20
2022-10-17T00:55:50.120Z,15.20
2022-10-17T00:58:26.660Z,15.20
2022-10-17T01:00:55.105Z,15.20
2022-10-17T01:03:31.759Z,15.20
2022-10-17T01:06:00.610Z,15.20
2022-10-17T01:08:35.598Z,15.20
2022-10-17T01:11:14.899Z,15.20
2022-10-17T01:13:56.800Z,15.20
2022-10-17T01:16:35.873Z,15.20
2022-10-17T01:19:34.597Z,15.20
2022-10-17T01:22:09.732Z,15.20
2022-10-17T01:24:57.708Z,15.30
2022-10-17T01:27:50.277Z,15.30
2022-10-17T01:30:59.633Z,15.30
2022-10-17T01:33:45.495Z,15.30
2022-10-17T01:36:27.658Z,15.30
2022-10-17T01:39:02.102Z,15.30
2022-10-17T01:41:46.817Z,15.40
2022-10-17T01:44:26.170Z,15.40
2022-10-17T01:47:09.661Z,15.40
2022-10-17T01:49:42.376Z,15.40
2022-10-17T01:52:20.645Z,15.40
2022-10-17T01:54:53.178Z,15.40
2022-10-17T01:57:34.818Z,15.40
2022-10-17T02:00:06.125Z,15.50
2022-10-17T02:02:41.805Z,15.50
2022-10-17T02:05:12.276Z,15.50
2022-10-17T02:07:49.814Z,15.50
2022-10-17T02:10:28.829Z,15.50
2022-10-17T02:13:10.721Z,15.60
2022-10-17T02:15:59.281Z,15.50
2022-10-17T02:18:54.843Z,15.50
2022-10-17T02:21:34.979Z,15.50
2022-10-17T02:24:15.697Z,15.60
2022-10-17T02:26:49.694Z,15.60
2022-10-17T02:29:28.682Z,15.60
2022-10-17T02:32:01.448Z,15.60
2022-10-17T02:34:39.732Z,15.60
2022-10-17T02:37:12.273Z,15.70
2022-10-17T02:39:47.752Z,15.60
2022-10-17T02:42:38.024Z,15.70
2022-10-17T02:45:14.791Z,15.70
2022-10-17T02:47:51.875Z,15.70
2022-10-17T02:53:10.229Z,15.70
2022-10-17T02:55:50.727Z,15.80
2022-10-17T02:58:26.665Z,15.80
2022-10-17T03:01:01.785Z,15.80
2022-10-17T03:03:32.149Z,15.80
2022-10-17T03:06:06.936Z,15.90
2022-10-17T03:11:16.939Z,15.90
2022-10-17T03:13:45.582Z,15.90
2022-10-17T03:16:20.932Z,15.90
2022-10-17T03:18:50.178Z,15.90
2022-10-17T03:21:24.775Z,16.00
2022-10-17T03:23:54.486Z,15.90
2022-10-17T03:26:29.895Z,16.00
2022-10-17T03:28:58.546Z,16.00
2022-10-17T03:31:33.787Z,16.00
2022-10-17T03:34:03.719Z,16.00
2022-10-17T03:36:38.803Z,16.10
2022-10-17T03:39:09.173Z,16.10
2022-10-17T03:41:43.800Z,16.10
2022-10-17T03:44:18.844Z,16.10
2022-10-17T03:46:53.789Z,16.20
2022-10-17T03:49:22.235Z,16.20
2022-10-17T03:51:56.791Z,16.20
2022-10-17T03:54:27.043Z,16.20
2022-10-17T03:57:01.811Z,16.30
2022-10-17T03:59:30.363Z,16.20
2022-10-17T04:02:04.933Z,16.30
2022-10-17T04:04:33.420Z,16.40
2022-10-17T04:07:08.821Z,16.30
2022-10-17T04:09:38.934Z,16.30
2022-10-17T04:12:13.923Z,16.30
2022-10-17T04:14:42.476Z,16.30
2022-10-17T04:17:17.956Z,16.30
2022-10-17T04:19:46.412Z,16.30
2022-10-17T04:22:21.838Z,16.30
2022-10-17T04:24:51.748Z,16.30
2022-10-17T04:27:26.819Z,16.20
2022-10-17T04:29:55.253Z,16.30
2022-10-17T04:32:31.025Z,16.30
2022-10-17T04:34:59.780Z,16.20
2022-10-17T04:37:36.847Z,16.20
2022-10-17T04:40:08.315Z,16.20
2022-10-17T04:42:43.874Z,16.20
2022-10-17T04:45:19.434Z,16.20
2022-10-17T04:47:54.960Z,16.20
2022-10-17T04:50:23.449Z,16.20
2022-10-17T04:52:59.007Z,16.20
2022-10-17T04:55:29.214Z,16.20
2022-10-17T04:58:03.809Z,16.20
2022-10-17T05:00:32.489Z,16.10
2022-10-17T05:03:07.861Z,16.20
2022-10-17T05:05:39.055Z,16.20
2022-10-17T05:08:13.983Z,16.20
2022-10-17T05:10:46.392Z,16.20
2022-10-17T05:13:21.817Z,16.20
2022-10-17T05:15:50.488Z,16.20
2022-10-17T05:18:25.864Z,16.20
2022-10-17T05:20:54.418Z,16.20
2022-10-17T05:23:29.885Z,16.20
2022-10-17T05:25:59.435Z,16.30
2022-10-17T05:28:35.055Z,16.30
2022-10-17T05:31:05.145Z,16.30
2022-10-17T05:33:40.944Z,16.30
2022-10-17T05:36:09.828Z,16.30
2022-10-17T05:38:44.880Z,16.30
2022-10-17T05:41:14.778Z,16.30
2022-10-17T05:43:57.816Z,16.30
2022-10-17T05:46:28.098Z,16.30
2022-10-17T05:49:10.650Z,16.30
2022-10-17T05:51:47.894Z,16.30
2022-10-17T05:54:22.872Z,16.30
2022-10-17T05:56:55.743Z,16.40
2022-10-17T05:59:31.946Z,16.40
2022-10-17T06:02:00.689Z,16.40
2022-10-17T06:04:36.193Z,16.40
2022-10-17T06:07:04.835Z,16.40
2022-10-17T06:09:40.193Z,16.40
2022-10-17T06:12:10.044Z,16.40
2022-10-17T06:14:45.084Z,16.50
2022-10-17T06:17:16.193Z,16.50
2022-10-17T06:19:52.118Z,16.50
2022-10-17T06:22:20.991Z,16.50
2022-10-17T06:24:56.005Z,16.50
2022-10-17T06:27:26.279Z,16.50
2022-10-17T06:30:01.105Z,16.50
2022-10-17T06:32:29.876Z,16.60
2022-10-17T06:35:04.918Z,16.60
2022-10-17T06:37:36.533Z,16.60
2022-10-17T06:40:14.968Z,16.60
2022-10-17T06:42:51.352Z,16.60
2022-10-17T06:45:33.056Z,16.70
2022-10-17T06:48:03.223Z,16.70
2022-10-17T06:50:37.968Z,16.70
2022-10-17T06:53:06.795Z,16.70
2022-10-17T06:55:42.087Z,16.80
2022-10-17T06:58:12.072Z,16.80
2022-10-17T07:00:47.220Z,16.90
2022-10-17T07:03:15.634Z,16.90
2022-10-17T07:05:44.102Z,17.00
2022-10-17T07:08:18.939Z,17.00
2022-10-17T07:10:47.589Z,17.10
2022-10-17T07:13:24.947Z,17.10
2022-10-17T07:18:34.076Z,17.30
2022-10-17T07:21:04.132Z,17.30
2022-10-17T07:23:41.006Z,17.40
2022-10-17T07:26:11.306Z,17.50
2022-10-17T07:28:51.797Z,17.50
2022-10-17T07:31:22.522Z,17.50
2022-10-17T07:33:57.928Z,17.60
2022-10-17T07:36:26.389Z,17.60
2022-10-17T07:39:01.140Z,17.60
2022-10-17T07:41:29.895Z,17.60
2022-10-17T07:44:06.139Z,17.60
2022-10-17T07:46:34.588Z,17.70
2022-10-17T07:49:10.065Z,17.70
2022-10-17T07:51:38.814Z,17.80
2022-10-17T07:54:14.062Z,17.80
2022-10-17T07:56:42.918Z,17.90
2022-10-17T07:59:19.099Z,17.90
2022-10-17T08:01:47.835Z,17.90
2022-10-17T08:04:24.153Z,17.90
2022-10-17T08:06:56.403Z,17.90
2022-10-17T08:09:36.271Z,17.90
2022-10-17T08:12:05.265Z,17.90
2022-10-17T08:14:42.057Z,17.90
2022-10-17T08:17:10.664Z,17.90
2022-10-17T08:19:48.033Z,17.90
2022-10-17T08:22:16.451Z,17.90
2022-10-17T08:24:53.161Z,17.90
2022-10-17T08:27:25.227Z,17.80
2022-10-17T08:30:02.059Z,17.90
2022-10-17T08:32:37.067Z,17.90
2022-10-17T08:35:05.920Z,17.90
2022-10-17T08:37:41.179Z,17.80
2022-10-17T08:40:16.236Z,17.80
2022-10-17T08:43:15.087Z,17.80
2022-10-17T08:45:56.480Z,17.70
2022-10-17T08:48:34.181Z,17.70
2022-10-17T08:51:07.331Z,17.60
2022-10-17T08:53:48.098Z,17.60
2022-10-17T08:56:30.493Z,17.60
2022-10-17T08:59:20.178Z,17.60
2022-10-17T09:01:56.981Z,17.60
2022-10-17T09:05:06.180Z,17.60
2022-10-17T09:07:41.938Z,17.70
2022-10-17T09:10:24.104Z,17.60
2022-10-17T09:13:07.726Z,17.60
2022-10-17T09:15:56.111Z,17.70
2022-10-17T09:18:29.511Z,17.70
2022-10-17T09:21:08.062Z,17.70
2022-10-17T09:23:45.812Z,17.70
2022-10-17T09:26:21.077Z,17.80
2022-10-17T09:28:56.185Z,17.80
2022-10-17T09:31:33.245Z,17.80
2022-10-17T09:34:05.981Z,17.70
2022-10-17T09:36:43.338Z,17.70
2022-10-17T09:39:16.250Z,17.70
2022-10-17T09:41:56.088Z,17.70
2022-10-17T09:44:32.748Z,17.70
2022-10-17T09:47:28.142Z,17.70
2022-10-17T09:49:58.351Z,17.60
2022-10-17T09:52:37.301Z,17.60
2022-10-17T09:55:08.610Z,17.60
2022-10-17T09:58:02.284Z,17.60
2022-10-17T10:00:32.637Z,17.60
2022-10-17T10:03:19.504Z,17.50
2022-10-17T10:06:05.317Z,17.60
2022-10-17T10:08:42.114Z,17.60
2022-10-17T10:11:13.800Z,17.60
2022-10-17T10:13:50.283Z,17.60
2022-10-17T10:16:22.683Z,17.70
2022-10-17T10:18:58.183Z,17.70
2022-10-17T10:21:29.416Z,17.80
2022-10-17T10:24:20.172Z,17.90
2022-10-17T10:26:50.268Z,17.90
2022-10-17T10:29:33.293Z,17.90
2022-10-17T10:32:10.745Z,17.90
2022-10-17T10:34:50.151Z,18.00
2022-10-17T10:37:23.359Z,18.00
2022-10-17T10:40:01.316Z,18.00
2022-10-17T10:42:52.803Z,18.00
2022-10-17T10:48:22.937Z,18.00
2022-10-17T10:51:00.222Z,18.10
2022-10-17T10:53:42.898Z,18.20
2022-10-17T10:56:24.276Z,18.30
2022-10-17T10:58:58.603Z,18.30
2022-10-17T11:01:41.473Z,18.40
2022-10-17T11:04:30.065Z,18.40
2022-10-17T11:07:11.307Z,18.50
2022-10-17T11:09:50.123Z,18.40
2022-10-17T11:12:30.161Z,18.50
2022-10-17T11:15:05.057Z,18.50
2022-10-17T11:17:46.365Z,18.50
2022-10-17T11:20:22.622Z,18.50
2022-10-17T11:23:02.547Z,18.60
2022-10-17T11:25:36.876Z,18.60
2022-10-17T11:28:19.245Z,18.60
2022-10-17T11:30:51.834Z,18.60
2022-10-17T11:33:34.173Z,18.60
2022-10-17T11:36:06.707Z,18.60
2022-10-17T11:38:51.541Z,18.70
2022-10-17T11:41:31.261Z,18.70
2022-10-17T11:44:12.265Z,18.70
2022-10-17T11:46:50.111Z,18.70
2022-10-17T11:49:32.080Z,18.60
2022-10-17T11:52:11.336Z,18.70
2022-10-17T11:54:51.260Z,18.70
2022-10-17T11:57:39.669Z,18.70
2022-10-17T12:00:39.263Z,18.70
2022-10-17T12:03:25.221Z,18.60
2022-10-17T12:06:05.347Z,18.60
2022-10-17T12:08:43.150Z,18.60
2022-10-17T12:11:30.223Z,18.60
2022-10-17T12:14:02.653Z,18.50
2022-10-17T12:16:53.427Z,18.50
2022-10-17T12:19:39.466Z,18.40
2022-10-17T12:22:27.536Z,18.40
2022-10-17T12:24:58.791Z,18.40
2022-10-17T12:27:52.213Z,18.40
2022-10-17T12:30:35.544Z,18.30
2022-10-17T12:33:14.264Z,18.30
2022-10-17T12:35:42.734Z,18.30
2022-10-17T12:38:35.391Z,18.30
2022-10-17T12:41:06.178Z,18.20
2022-10-17T12:43:56.490Z,18.20
2022-10-17T12:46:58.748Z,18.20
2022-10-17T12:49:53.115Z,18.10
2022-10-17T12:52:43.313Z,18.10
2022-10-17T12:55:23.420Z,18.10
2022-10-17T12:58:01.618Z,18.10
2022-10-17T13:00:49.851Z,18.00
2022-10-17T13:03:33.038Z,18.00
2022-10-17T13:06:10.299Z,18.00
2022-10-17T13:08:44.779Z,18.00
2022-10-17T13:11:22.519Z,18.00
2022-10-17T13:13:52.290Z,18.00
2022-10-17T13:16:37.336Z,18.00
2022-10-17T13:19:16.540Z,18.10
2022-10-17T13:21:59.868Z,18.10
2022-10-17T13:24:34.332Z,18.10
2022-10-17T13:27:10.286Z,18.10
2022-10-17T13:29:46.164Z,18.00
2022-10-17T13:32:21.913Z,18.00
2022-10-17T13:35:07.849Z,18.00
2022-10-17T13:37:43.473Z,18.10
2022-10-17T13:40:44.162Z,18.10
2022-10-17T13:43:23.312Z,18.20
2022-10-17T13:46:13.653Z,18.20
2022-10-17T13:48:56.386Z,18.20
2022-10-17T13:51:27.679Z,18.30
2022-10-17T13:54:03.581Z,18.20
2022-10-17T13:56:32.054Z,18.20
2022-10-17T13:59:11.466Z,18.20
2022-10-17T14:01:40.427Z,18.20
2022-10-17T14:04:20.326Z,18.20
2022-10-17T14:06:52.271Z,18.20
2022-10-17T14:09:31.381Z,18.30
2022-10-17T14:12:03.106Z,18.30
2022-10-17T14:15:05.263Z,18.30
2022-10-17T14:17:29.986Z,18.30
2022-10-17T14:23:21.906Z,18.30
2022-10-17T14:25:57.552Z,18.20
2022-10-17T14:28:32.853Z,18.20
2022-10-17T14:31:22.484Z,18.20
2022-10-17T14:33:52.941Z,18.20
2022-10-17T14:36:29.438Z,18.20
2022-10-17T14:39:00.481Z,18.20
2022-10-17T14:41:42.978Z,18.20
2022-10-17T14:44:29.865Z,18.20
2022-10-17T14:47:38.095Z,18.20
2022-10-17T14:50:14.443Z,18.20
2022-10-17T14:52:43.178Z,18.30
2022-10-17T14:55:30.559Z,18.30
2022-10-17T14:57:59.698Z,18.30
2022-10-17T15:00:28.255Z,18.30
2022-10-17T15:03:04.456Z,18.30
2022-10-17T15:05:32.992Z,18.30
2022-10-17T15:08:08.501Z,18.30
2022-10-17T15:10:42.067Z,18.30
2022-10-17T15:13:40.958Z,18.40
2022-10-17T15:16:21.371Z,18.40
2022-10-17T15:18:50.369Z,18.40
2022-10-17T15:21:37.581Z,18.40
2022-10-17T15:24:09.177Z,18.40
2022-10-17T15:26:46.474Z,18.40
2022-10-17T15:29:17.328Z,18.40
2022-10-17T15:31:52.574Z,18.40
2022-10-17T15:34:21.256Z,18.40
2022-10-17T15:37:00.269Z,18.30
2022-10-17T15:39:29.123Z,18.30
2022-10-17T15:42:06.512Z,18.30
2022-10-17T15:44:56.634Z,18.30
2022-10-17T15:47:35.801Z,18.30
2022-10-17T15:50:05.077Z,18.30
2022-10-17T15:52:40.474Z,18.20
2022-10-17T15:55:10.093Z,18.20
2022-10-17T15:57:49.479Z,18.10
2022-10-17T16:00:20.724Z,18.10
2022-10-17T16:02:57.433Z,18.10
2022-10-17T16:05:28.524Z,18.00
2022-10-17T16:08:05.508Z,18.00
2022-10-17T16:10:41.970Z,18.00
2022-10-17T16:13:24.619Z,18.00
2022-10-17T16:15:53.791Z,17.90
2022-10-17T16:18:28.822Z,17.90
2022-10-17T16:20:57.888Z,17.90
2022-10-17T16:23:32.427Z,17.90
2022-10-17T16:26:00.863Z,17.90
2022-10-17T16:28:38.813Z,17.80
2022-10-17T16:31:20.313Z,17.80
2022-10-17T16:33:56.499Z,17.80
2022-10-17T16:36:25.232Z,17.70
2022-10-17T16:39:00.660Z,17.70
2022-10-17T16:41:30.812Z,17.70
2022-10-17T16:44:08.499Z,17.60
2022-10-17T16:46:38.834Z,17.60
2022-10-17T16:49:14.692Z,17.60
2022-10-17T16:51:43.239Z,17.60
2022-10-17T16:54:18.520Z,17.60
2022-10-17T16:56:46.956Z,17.50
2022-10-17T16:59:23.575Z,17.50
2022-10-17T17:01:52.012Z,17.40
2022-10-17T17:04:26.557Z,17.40
2022-10-17T17:06:55.348Z,17.30
2022-10-17T17:09:30.688Z,17.30
2022-10-17T17:11:59.221Z,17.30
2022-10-17T17:14:35.650Z,17.20
2022-10-17T17:17:04.250Z,17.20
2022-10-17T17:19:39.573Z,17.10
2022-10-17T17:22:08.173Z,17.00
2022-10-17T17:24:43.638Z,17.00
2022-10-17T17:27:13.541Z,16.90
2022-10-17T17:29:50.483Z,16.90
2022-10-17T17:32:18.966Z,16.80
2022-10-17T17:34:53.580Z,16.80
2022-10-17T17:37:22.126Z,16.80
2022-10-17T17:39:57.510Z,16.70
2022-10-17T17:42:27.119Z,16.70
2022-10-17T17:45:03.623Z,16.60
2022-10-17T17:47:38.415Z,16.60
2022-10-17T17:50:14.729Z,16.60
2022-10-17T17:52:45.846Z,16.50
2022-10-17T17:55:20.726Z,16.50
2022-10-17T17:57:49.585Z,16.50
2022-10-17T18:00:25.635Z,16.40
2022-10-17T18:02:54.210Z,16.40
2022-10-17T18:05:29.767Z,16.40
2022-10-17T18:07:58.703Z,16.40
2022-10-17T18:10:35.774Z,16.40
2022-10-17T18:13:04.418Z,16.40
2022-10-17T18:15:40.773Z,16.30
2022-10-17T18:18:09.378Z,16.30
2022-10-17T18:20:48.791Z,16.30
2022-10-17T18:23:17.885Z,16.30
2022-10-17T18:26:03.298Z,16.30
2022-10-17T18:28:32.432Z,16.20
2022-10-17T18:31:14.534Z,16.30
2022-10-17T18:33:51.571Z,16.20
2022-10-17T18:36:20.246Z,16.20
2022-10-17T18:38:55.616Z,16.20
2022-10-17T18:41:25.939Z,16.20
2022-10-17T18:44:09.644Z,16.20
2022-10-17T18:46:47.057Z,16.20
2022-10-17T18:49:25.641Z,16.10
2022-10-17T18:51:54.270Z,16.10
2022-10-17T18:54:30.754Z,16.10
2022-10-17T18:56:59.126Z,16.10
2022-10-17T18:59:34.671Z,16.10
2022-10-17T19:02:04.338Z,16.10
2022-10-17T19:04:39.642Z,16.00
2022-10-17T19:07:08.218Z,16.00
2022-10-17T19:09:43.788Z,16.10
2022-10-17T19:12:12.409Z,16.00
2022-10-17T19:14:47.761Z,16.00
2022-10-17T19:17:17.925Z,16.00
2022-10-17T19:19:56.631Z,16.00
2022-10-17T19:22:24.928Z,15.90
2022-10-17T19:24:59.574Z,15.90
2022-10-17T19:27:28.682Z,15.90
2022-10-17T19:30:03.621Z,15.90
2022-10-17T19:32:33.960Z,15.90
2022-10-17T19:35:09.651Z,15.90
2022-10-17T19:37:38.302Z,15.90
2022-10-17T19:40:13.899Z,15.90
2022-10-17T19:42:42.259Z,15.90
2022-10-17T19:45:24.722Z,15.80
2022-10-17T19:48:01.382Z,15.80
2022-10-17T19:50:39.189Z,15.80
2022-10-17T19:53:09.896Z,15.80
2022-10-17T19:55:44.844Z,15.80
2022-10-17T19:58:13.855Z,15.80
2022-10-17T20:00:54.855Z,15.80
2022-10-17T20:03:25.535Z,15.80
2022-10-17T20:06:00.887Z,15.70
2022-10-17T20:08:29.454Z,15.70
2022-10-17T20:11:04.886Z,15.70
2022-10-17T20:13:33.970Z,15.70
2022-10-17T20:16:09.724Z,15.70
2022-10-17T20:18:40.820Z,15.70
2022-10-17T20:21:18.835Z,15.70
2022-10-17T20:23:48.065Z,15.70
2022-10-17T20:26:37.058Z,15.70
2022-10-17T20:29:11.382Z,15.70
2022-10-17T20:31:47.862Z,15.70
2022-10-17T20:34:19.660Z,15.60
2022-10-17T20:36:54.798Z,15.60
2022-10-17T20:39:23.417Z,15.60
2022-10-17T20:41:58.861Z,15.60
2022-10-17T20:44:34.438Z,15.60
2022-10-17T20:47:16.297Z,15.60
2022-10-17T20:49:50.834Z,15.60
2022-10-17T20:52:25.894Z,15.60
2022-10-17T20:54:54.442Z,15.50
2022-10-17T20:57:30.129Z,15.60
2022-10-17T20:59:58.957Z,15.60
2022-10-17T21:02:33.912Z,15.50
2022-10-17T21:05:03.989Z,15.50
2022-10-17T21:07:38.903Z,15.60
2022-10-17T21:10:24.028Z,15.50
2022-10-17T21:13:03.729Z,15.60
2022-10-17T21:15:32.172Z,15.50
2022-10-17T21:18:06.740Z,15.50
2022-10-17T21:20:36.882Z,15.50
2022-10-17T21:23:11.787Z,15.50
2022-10-17T21:25:40.862Z,15.50
2022-10-17T21:28:15.887Z,15.50
2022-10-17T21:30:44.438Z,15.50
2022-10-17T21:33:19.777Z,15.50
2022-10-17T21:35:49.920Z,15.50
2022-10-17T21:38:24.810Z,15.50
2022-10-17T21:40:55.354Z,15.50
2022-10-17T21:43:30.789Z,15.50
2022-10-17T21:46:07.077Z,15.50
2022-10-17T21:48:42.931Z,15.50
2022-10-17T21:51:16.192Z,15.50
2022-10-17T21:53:52.077Z,15.50
2022-10-17T21:56:22.205Z,15.50
2022-10-17T21:58:58.758Z,15.50
2022-10-17T22:01:29.427Z,15.50
2022-10-17T22:04:06.823Z,15.50
2022-10-17T22:06:40.601Z,15.50
2022-10-17T22:09:20.096Z,15.50
2022-10-17T22:11:51.093Z,15.50
2022-10-17T22:14:27.842Z,15.50
2022-10-17T22:16:56.788Z,15.50
2022-10-17T22:19:34.811Z,15.50
2022-10-17T22:22:04.709Z,15.60
2022-10-17T22:24:39.778Z,15.60
2022-10-17T22:27:10.442Z,15.60
2022-10-17T22:29:45.840Z,15.50
2022-10-17T22:32:18.634Z,15.50
2022-10-17T22:34:56.966Z,15.50
2022-10-17T22:37:33.952Z,15.60
2022-10-17T22:40:16.394Z,15.60
2022-10-17T22:42:57.957Z,15.60
2022-10-17T22:45:33.730Z,15.60
2022-10-17T22:48:08.988Z,15.60
2022-10-17T22:50:37.432Z,15.60
2022-10-17T22:53:13.865Z,15.60
2022-10-17T22:55:42.316Z,15.60
2022-10-17T22:58:16.855Z,15.60
2022-10-17T23:00:45.226Z,15.60
2022-10-17T23:03:19.812Z,15.60
2022-10-17T23:05:48.570Z,15.60
2022-10-17T23:08:25.815Z,15.60
2022-10-17T23:10:54.910Z,15.60
2022-10-17T23:13:30.001Z,15.70
2022-10-17T23:15:59.425Z,15.70
2022-10-17T23:18:34.994Z,15.70
2022-10-17T23:21:03.776Z,15.70
2022-10-17T23:23:41.003Z,15.70
2022-10-17T23:26:12.130Z,15.70
2022-10-17T23:28:48.110Z,15.70
2022-10-17T23:31:19.713Z,15.70
2022-10-17T23:33:57.027Z,15.70
2022-10-17T23:36:25.534Z,15.70
2022-10-17T23:39:01.831Z,15.70
2022-10-17T23:41:30.609Z,15.70
2022-10-17T23:44:05.904Z,15.60
2022-10-17T23:46:41.023Z,15.70
2022-10-17T23:49:15.881Z,15.70
2022-10-17T23:51:44.349Z,15.70
2022-10-17T23:54:21.056Z,15.60
2022-10-17T23:56:49.377Z,15.60
2022-10-17T23:59:25.079Z,15.60
